createdAt,value
2023-03-11T00:00:01.122Z,7.3
2023-03-11T00:01:01.127Z,7.3
2023-03-11T00:02:01.268Z,7.3
2023-03-11T00:03:01.951Z,7.3
2023-03-11T00:04:01.968Z,7.2
2023-03-11T00:05:01.228Z,7.2
2023-03-11T00:06:01.160Z,7.2
2023-03-11T00:07:01.106Z,7.2
2023-03-11T00:08:01.080Z,7.2
2023-03-11T00:09:01.093Z,7.1
2023-03-11T00:10:01.131Z,7.1
2023-03-11T00:11:01.219Z,7.1
2023-03-11T00:12:01.847Z,7.1
2023-03-11T00:13:01.176Z,7.1
2023-03-11T00:14:01.435Z,7.1
2023-03-11T00:15:01.132Z,7
2023-03-11T00:16:01.076Z,7
2023-03-11T00:17:00.814Z,7
2023-03-11T00:18:00.545Z,7
2023-03-11T00:19:00.229Z,7
2023-03-11T00:19:59.921Z,7
2023-03-11T00:20:59.721Z,6.9
2023-03-11T00:22:01.351Z,6.9
2023-03-11T00:23:01.390Z,6.9
2023-03-11T00:24:02.093Z,6.8
2023-03-11T00:25:01.283Z,6.8
2023-03-11T00:26:01.061Z,6.8
2023-03-11T00:27:01.066Z,6.8
2023-03-11T00:28:01.069Z,6.8
2023-03-11T00:29:01.118Z,6.8
2023-03-11T00:30:01.120Z,6.8
2023-03-11T00:31:01.327Z,6.8
2023-03-11T00:32:01.487Z,6.7
2023-03-11T00:33:02.196Z,6.7
2023-03-11T00:34:01.271Z,6.7
2023-03-11T00:35:01.073Z,6.7
2023-03-11T00:36:01.257Z,6.6
2023-03-11T00:37:01.164Z,6.6
2023-03-11T00:38:01.192Z,6.5
2023-03-11T00:39:01.948Z,6.4
2023-03-11T00:40:01.888Z,6.3
2023-03-11T00:41:01.461Z,6.2
2023-03-11T00:42:03.974Z,6.1
2023-03-11T00:43:01.110Z,6
2023-03-11T00:44:01.108Z,6
2023-03-11T00:45:01.831Z,6
2023-03-11T00:46:02.097Z,6
2023-03-11T00:47:00.626Z,5.9
2023-03-11T00:48:00.526Z,5.8
2023-03-11T00:49:00.193Z,5.7
2023-03-11T00:49:59.895Z,5.7
2023-03-11T00:50:59.495Z,5.6
2023-03-11T00:52:02.715Z,5.5
2023-03-11T00:53:01.171Z,5.5
2023-03-11T00:54:01.176Z,5.5
2023-03-11T00:55:01.089Z,5.5
2023-03-11T00:56:01.054Z,5.4
2023-03-11T00:57:01.104Z,5.3
2023-03-11T00:58:01.102Z,5.3
2023-03-11T00:59:01.088Z,5.1
2023-03-11T01:00:01.104Z,5.1
2023-03-11T01:01:01.806Z,5.1
2023-03-11T01:02:01.173Z,5
2023-03-11T01:03:01.129Z,5
2023-03-11T01:04:01.122Z,5
2023-03-11T01:05:01.054Z,4.9
2023-03-11T01:06:05.137Z,4.9
2023-03-11T01:07:01.946Z,4.9
2023-03-11T01:08:01.522Z,4.9
2023-03-11T01:09:01.267Z,4.9
2023-03-11T01:10:01.174Z,4.9
2023-03-11T01:11:03.423Z,4.9
2023-03-11T01:12:01.065Z,4.9
2023-03-11T01:13:01.110Z,4.9
2023-03-11T01:14:01.094Z,4.8
2023-03-11T01:15:01.124Z,4.8
2023-03-11T01:16:11.749Z,4.7
2023-03-11T01:17:01.529Z,4.6
2023-03-11T01:18:01.108Z,4.5
2023-03-11T01:19:01.072Z,4.5
2023-03-11T01:20:01.127Z,4.5
2023-03-11T01:21:13.707Z,4.4
2023-03-11T01:22:02.564Z,4.3
2023-03-11T01:23:01.338Z,4.3
2023-03-11T01:24:02.514Z,4.3
2023-03-11T01:25:01.152Z,4.2
2023-03-11T01:26:16.624Z,4.1
2023-03-11T01:27:01.277Z,4.1
2023-03-11T01:28:02.154Z,4.1
2023-03-11T01:29:03.010Z,4.1
2023-03-11T01:30:01.075Z,4.1
2023-03-11T01:31:01.726Z,4.1
2023-03-11T01:32:01.950Z,4.1
2023-03-11T01:33:01.919Z,4.1
2023-03-11T01:34:01.274Z,4.1
2023-03-11T01:35:01.499Z,4.1
2023-03-11T01:36:01.285Z,4.1
2023-03-11T01:37:01.118Z,4.1
2023-03-11T01:38:01.131Z,4
2023-03-11T01:39:01.135Z,3.9
2023-03-11T01:40:01.166Z,3.8
2023-03-11T01:41:01.160Z,3.8
2023-03-11T01:42:01.266Z,3.8
2023-03-11T01:43:01.445Z,3.8
2023-03-11T01:44:00.949Z,3.8
2023-03-11T01:45:01.086Z,3.8
2023-03-11T01:46:00.703Z,3.8
2023-03-11T01:47:00.335Z,3.8
2023-03-11T01:48:00.049Z,3.8
2023-03-11T01:48:59.746Z,3.8
2023-03-11T01:50:01.859Z,3.8
2023-03-11T01:51:01.790Z,3.7
2023-03-11T01:52:01.227Z,3.6
2023-03-11T01:53:01.233Z,3.6
2023-03-11T01:54:01.246Z,3.6
2023-03-11T01:55:01.960Z,3.6
2023-03-11T01:56:01.031Z,3.5
2023-03-11T01:57:00.717Z,3.5
2023-03-11T01:58:00.444Z,3.5
2023-03-11T01:59:00.151Z,3.4
2023-03-11T01:59:59.830Z,3.3
2023-03-11T02:01:01.724Z,3.2
2023-03-11T02:02:02.269Z,3.1
2023-03-11T02:03:01.271Z,3.2
2023-03-11T02:04:02.297Z,3.1
2023-03-11T02:05:01.964Z,3.1
2023-03-11T02:06:01.315Z,3.1
2023-03-11T02:07:02.240Z,3
2023-03-11T02:08:01.935Z,3
2023-03-11T02:09:00.903Z,3
2023-03-11T02:10:01.139Z,3
2023-03-11T02:11:01.136Z,2.9
2023-03-11T02:12:01.546Z,2.8
2023-03-11T02:13:01.192Z,2.8
2023-03-11T02:14:01.169Z,2.8
2023-03-11T02:15:01.188Z,2.8
2023-03-11T02:16:01.083Z,2.8
2023-03-11T02:17:01.077Z,2.8
2023-03-11T02:18:00.673Z,2.8
2023-03-11T02:19:00.368Z,2.8
2023-03-11T02:20:00.317Z,2.7
2023-03-11T02:21:00.084Z,2.7
2023-03-11T02:21:59.768Z,2.6
2023-03-11T02:23:02.623Z,2.6
2023-03-11T02:24:01.513Z,2.6
2023-03-11T02:25:01.235Z,2.6
2023-03-11T02:26:01.358Z,2.6
2023-03-11T02:27:01.137Z,2.6
2023-03-11T02:28:01.080Z,2.5
2023-03-11T02:29:01.073Z,2.5
2023-03-11T02:30:00.862Z,2.5
2023-03-11T02:31:00.645Z,2.5
2023-03-11T02:32:00.613Z,2.5
2023-03-11T02:33:00.348Z,2.5
2023-03-11T02:34:00.068Z,2.5
2023-03-11T02:34:59.873Z,2.5
2023-03-11T02:35:59.568Z,2.4
2023-03-11T02:37:01.218Z,2.4
2023-03-11T02:38:01.960Z,2.3
2023-03-11T02:39:01.128Z,2.3
2023-03-11T02:40:01.141Z,2.3
2023-03-11T02:41:01.137Z,2.3
2023-03-11T02:42:01.133Z,2.3
2023-03-11T02:43:01.133Z,2.3
2023-03-11T02:44:01.829Z,2.3
2023-03-11T02:45:01.154Z,2.3
2023-03-11T02:46:01.148Z,2.3
2023-03-11T02:47:01.483Z,2.3
2023-03-11T02:48:01.275Z,2.3
2023-03-11T02:49:01.854Z,2.2
2023-03-11T02:50:01.128Z,2.3
2023-03-11T02:51:01.082Z,2.2
2023-03-11T02:52:03.740Z,2.2
2023-03-11T02:53:01.064Z,2.2
2023-03-11T02:54:01.101Z,2.2
2023-03-11T02:55:01.505Z,2.2
2023-03-11T02:56:01.221Z,2.2
2023-03-11T02:57:07.991Z,2.2
2023-03-11T02:58:01.132Z,2.2
2023-03-11T02:59:01.151Z,2.2
2023-03-11T03:00:01.161Z,2.1
2023-03-11T03:01:01.569Z,2.1
2023-03-11T03:02:10.488Z,2.1
2023-03-11T03:03:01.187Z,2.1
2023-03-11T03:04:01.217Z,2.1
2023-03-11T03:05:01.885Z,2.1
2023-03-11T03:06:01.191Z,2.1
2023-03-11T03:07:12.812Z,2.1
2023-03-11T03:08:01.090Z,2.1
2023-03-11T03:09:03.787Z,2.1
2023-03-11T03:10:01.998Z,2.1
2023-03-11T03:11:01.855Z,2.1
2023-03-11T03:12:15.410Z,2.1
2023-03-11T03:13:02.535Z,2.1
2023-03-11T03:14:01.322Z,2.1
2023-03-11T03:15:02.220Z,2.1
2023-03-11T03:16:01.143Z,2.1
2023-03-11T03:17:01.333Z,2.1
2023-03-11T03:18:01.063Z,2.1
2023-03-11T03:19:01.062Z,2.1
2023-03-11T03:20:01.121Z,2.1
2023-03-11T03:21:01.065Z,2.1
2023-03-11T03:22:01.068Z,2.1
2023-03-11T03:23:01.460Z,2.1
2023-03-11T03:24:01.191Z,2.1
2023-03-11T03:25:02.444Z,2.1
2023-03-11T03:26:01.177Z,2.1
2023-03-11T03:27:01.221Z,2
2023-03-11T03:28:01.197Z,2
2023-03-11T03:29:01.108Z,2
2023-03-11T03:30:01.126Z,2.1
2023-03-11T03:31:01.142Z,2.1
2023-03-11T03:32:01.282Z,2.1
2023-03-11T03:33:01.541Z,2.1
2023-03-11T03:34:01.537Z,2
2023-03-11T03:35:02.166Z,2
2023-03-11T03:36:01.326Z,2
2023-03-11T03:37:03.985Z,2
2023-03-11T03:38:01.062Z,2
2023-03-11T03:39:01.085Z,2
2023-03-11T03:40:01.085Z,2
2023-03-11T03:41:01.117Z,2
2023-03-11T03:42:01.313Z,2
2023-03-11T03:43:01.132Z,2
2023-03-11T03:44:01.065Z,2
2023-03-11T03:45:01.089Z,2
2023-03-11T03:46:01.233Z,2
2023-03-11T03:47:01.126Z,2
2023-03-11T03:48:01.133Z,2
2023-03-11T03:49:01.948Z,2
2023-03-11T03:50:01.426Z,2
2023-03-11T03:51:01.541Z,2
2023-03-11T03:52:01.277Z,2
2023-03-11T03:53:01.971Z,1.9
2023-03-11T03:54:01.079Z,1.9
2023-03-11T03:55:01.110Z,2
2023-03-11T03:56:06.808Z,1.9
2023-03-11T03:57:01.503Z,1.9
2023-03-11T03:58:00.785Z,1.9
2023-03-11T03:59:01.488Z,1.8
2023-03-11T04:00:01.488Z,1.8
2023-03-11T04:01:01.267Z,1.8
2023-03-11T04:02:01.195Z,1.8
2023-03-11T04:03:01.166Z,1.8
2023-03-11T04:04:01.138Z,1.8
2023-03-11T04:05:04.569Z,1.8
2023-03-11T04:06:01.160Z,1.8
2023-03-11T04:07:01.171Z,1.8
2023-03-11T04:08:01.189Z,1.8
2023-03-11T04:09:01.431Z,1.8
2023-03-11T04:10:02.184Z,1.8
2023-03-11T04:11:01.133Z,1.8
2023-03-11T04:12:01.095Z,1.8
2023-03-11T04:13:01.121Z,1.8
2023-03-11T04:14:01.099Z,1.8
2023-03-11T04:15:01.135Z,1.8
2023-03-11T04:16:01.087Z,1.8
2023-03-11T04:17:01.214Z,1.8
2023-03-11T04:18:01.499Z,1.8
2023-03-11T04:19:01.240Z,1.8
2023-03-11T04:20:02.946Z,1.8
2023-03-11T04:21:01.441Z,1.8
2023-03-11T04:22:01.146Z,1.8
2023-03-11T04:23:01.135Z,1.8
2023-03-11T04:24:01.265Z,1.8
2023-03-11T04:25:01.218Z,1.8
2023-03-11T04:26:01.904Z,1.8
2023-03-11T04:27:01.210Z,1.8
2023-03-11T04:28:01.089Z,1.8
2023-03-11T04:29:01.197Z,1.8
2023-03-11T04:30:01.132Z,1.8
2023-03-11T04:31:02.262Z,1.8
2023-03-11T04:32:01.297Z,1.8
2023-03-11T04:33:00.956Z,1.8
2023-03-11T04:34:01.513Z,1.8
2023-03-11T04:35:01.150Z,1.8
2023-03-11T04:36:01.225Z,1.8
2023-03-11T04:37:01.146Z,1.8
2023-03-11T04:38:03.715Z,1.8
2023-03-11T04:39:01.163Z,1.8
2023-03-11T04:40:01.393Z,1.8
2023-03-11T04:41:01.257Z,1.8
2023-03-11T04:42:03.610Z,1.8
2023-03-11T04:43:05.888Z,1.7
2023-03-11T04:44:01.505Z,1.8
2023-03-11T04:45:05.124Z,1.8
2023-03-11T04:46:01.844Z,1.8
2023-03-11T04:47:01.146Z,1.8
2023-03-11T04:48:09.504Z,1.8
2023-03-11T04:49:01.114Z,1.8
2023-03-11T04:50:01.135Z,1.7
2023-03-11T04:51:01.154Z,1.8
2023-03-11T04:52:01.143Z,1.8
2023-03-11T04:53:11.621Z,1.8
2023-03-11T04:54:01.146Z,1.8
2023-03-11T04:55:06.122Z,1.8
2023-03-11T04:56:01.174Z,1.8
2023-03-11T04:57:01.152Z,1.8
2023-03-11T04:58:14.112Z,1.8
2023-03-11T04:59:01.195Z,1.8
2023-03-11T05:00:01.116Z,1.8
2023-03-11T05:01:01.207Z,1.8
2023-03-11T05:02:01.093Z,1.8
2023-03-11T05:03:16.283Z,1.8
2023-03-11T05:04:01.668Z,1.8
2023-03-11T05:05:04.256Z,1.8
2023-03-11T05:06:01.956Z,1.8
2023-03-11T05:07:01.431Z,1.8
2023-03-11T05:08:01.142Z,1.8
2023-03-11T05:09:01.186Z,1.8
2023-03-11T05:10:01.137Z,1.8
2023-03-11T05:11:01.165Z,1.8
2023-03-11T05:12:01.207Z,1.7
2023-03-11T05:13:01.188Z,1.8
2023-03-11T05:14:01.202Z,1.8
2023-03-11T05:15:01.088Z,1.8
2023-03-11T05:16:01.139Z,1.8
2023-03-11T05:17:01.079Z,1.8
2023-03-11T05:18:01.345Z,1.7
2023-03-11T05:19:01.175Z,1.7
2023-03-11T05:20:01.537Z,1.8
2023-03-11T05:21:01.195Z,1.7
2023-03-11T05:22:01.225Z,1.7
2023-03-11T05:23:01.131Z,1.8
2023-03-11T05:24:01.127Z,1.7
2023-03-11T05:25:01.126Z,1.7
2023-03-11T05:26:01.154Z,1.7
2023-03-11T05:27:01.527Z,1.7
2023-03-11T05:28:01.141Z,1.7
2023-03-11T05:29:01.286Z,1.7
2023-03-11T05:30:01.355Z,1.6
2023-03-11T05:31:01.131Z,1.7
2023-03-11T05:32:01.066Z,1.7
2023-03-11T05:33:01.078Z,1.6
2023-03-11T05:34:01.098Z,1.6
2023-03-11T05:35:01.087Z,1.6
2023-03-11T05:36:01.164Z,1.6
2023-03-11T05:37:03.091Z,1.6
2023-03-11T05:38:01.104Z,1.6
2023-03-11T05:39:01.830Z,1.7
2023-03-11T05:40:01.054Z,1.7
2023-03-11T05:41:01.383Z,1.7
2023-03-11T05:42:01.451Z,1.7
2023-03-11T05:43:02.577Z,1.6
2023-03-11T05:44:01.153Z,1.6
2023-03-11T05:45:01.160Z,1.6
2023-03-11T05:46:01.071Z,1.7
2023-03-11T05:47:01.167Z,1.7
2023-03-11T05:48:01.086Z,1.7
2023-03-11T05:49:01.477Z,1.7
2023-03-11T05:50:01.086Z,1.8
2023-03-11T05:51:00.802Z,1.8
2023-03-11T05:52:01.099Z,1.8
2023-03-11T05:53:01.228Z,1.7
2023-03-11T05:54:02.031Z,1.7
2023-03-11T05:55:01.956Z,1.7
2023-03-11T05:56:01.343Z,1.7
2023-03-11T05:57:01.396Z,1.7
2023-03-11T05:58:01.384Z,1.8
2023-03-11T05:59:01.139Z,1.8
2023-03-11T06:00:01.725Z,1.8
2023-03-11T06:01:02.182Z,1.8
2023-03-11T06:02:01.834Z,1.8
2023-03-11T06:03:01.203Z,1.8
2023-03-11T06:04:01.214Z,1.8
2023-03-11T06:05:02.134Z,1.8
2023-03-11T06:06:01.199Z,1.8
2023-03-11T06:07:01.233Z,1.8
2023-03-11T06:08:01.274Z,1.8
2023-03-11T06:09:01.173Z,1.8
2023-03-11T06:10:01.130Z,1.7
2023-03-11T06:11:00.940Z,1.8
2023-03-11T06:12:01.135Z,1.7
2023-03-11T06:13:01.132Z,1.7
2023-03-11T06:14:01.129Z,1.7
2023-03-11T06:15:01.287Z,1.7
2023-03-11T06:16:01.400Z,1.8
2023-03-11T06:17:01.142Z,1.8
2023-03-11T06:18:01.136Z,1.8
2023-03-11T06:19:01.199Z,1.8
2023-03-11T06:20:01.088Z,1.8
2023-03-11T06:21:01.892Z,1.8
2023-03-11T06:22:01.756Z,1.8
2023-03-11T06:23:01.082Z,1.8
2023-03-11T06:24:01.101Z,1.8
2023-03-11T06:25:01.359Z,1.8
2023-03-11T06:26:01.378Z,1.8
2023-03-11T06:27:01.496Z,1.8
2023-03-11T06:28:02.143Z,1.8
2023-03-11T06:29:02.726Z,1.8
2023-03-11T06:30:02.166Z,1.8
2023-03-11T06:31:02.957Z,1.8
2023-03-11T06:32:01.335Z,1.8
2023-03-11T06:33:01.148Z,1.8
2023-03-11T06:34:04.771Z,1.8
2023-03-11T06:35:01.157Z,1.8
2023-03-11T06:36:01.492Z,1.8
2023-03-11T06:37:01.469Z,1.8
2023-03-11T06:38:01.079Z,1.8
2023-03-11T06:39:08.428Z,1.8
2023-03-11T06:40:01.116Z,1.8
2023-03-11T06:41:01.130Z,1.8
2023-03-11T06:42:01.105Z,1.9
2023-03-11T06:43:01.124Z,1.8
2023-03-11T06:44:10.637Z,1.8
2023-03-11T06:45:01.235Z,1.8
2023-03-11T06:46:08.260Z,1.8
2023-03-11T06:47:01.144Z,1.8
2023-03-11T06:48:01.213Z,1.8
2023-03-11T06:49:14.143Z,1.8
2023-03-11T06:50:00.923Z,1.8
2023-03-11T06:51:00.647Z,1.8
2023-03-11T06:52:00.343Z,1.9
2023-03-11T06:53:00.000Z,1.9
2023-03-11T06:53:59.621Z,1.9
2023-03-11T06:55:01.443Z,1.9
2023-03-11T06:56:01.110Z,1.9
2023-03-11T06:57:01.043Z,1.9
2023-03-11T06:58:01.180Z,1.9
2023-03-11T06:59:01.820Z,1.9
2023-03-11T07:00:01.399Z,1.9
2023-03-11T07:01:01.213Z,1.9
2023-03-11T07:02:01.793Z,1.9
2023-03-11T07:03:02.397Z,1.9
2023-03-11T07:04:01.612Z,1.9
2023-03-11T07:05:01.070Z,1.9
2023-03-11T07:06:01.161Z,1.9
2023-03-11T07:07:01.154Z,1.9
2023-03-11T07:08:01.080Z,2
2023-03-11T07:09:01.072Z,1.9
2023-03-11T07:10:01.087Z,1.9
2023-03-11T07:11:01.804Z,1.9
2023-03-11T07:12:01.236Z,2
2023-03-11T07:13:01.250Z,2
2023-03-11T07:14:01.488Z,1.9
2023-03-11T07:15:02.102Z,1.9
2023-03-11T07:16:02.612Z,2
2023-03-11T07:17:01.322Z,2
2023-03-11T07:18:02.677Z,2
2023-03-11T07:19:01.327Z,2
2023-03-11T07:20:01.960Z,2
2023-03-11T07:21:01.153Z,2
2023-03-11T07:22:01.249Z,2
2023-03-11T07:23:01.551Z,2
2023-03-11T07:24:04.132Z,2
2023-03-11T07:25:01.795Z,2
2023-03-11T07:26:04.113Z,2
2023-03-11T07:27:01.243Z,2
2023-03-11T07:28:01.097Z,2
2023-03-11T07:29:01.108Z,2
2023-03-11T07:30:03.220Z,2
2023-03-11T07:31:01.705Z,2
2023-03-11T07:32:01.178Z,2
2023-03-11T07:33:01.933Z,2
2023-03-11T07:34:01.152Z,2
2023-03-11T07:35:00.838Z,2
2023-03-11T07:36:00.563Z,2
2023-03-11T07:37:00.226Z,2
2023-03-11T07:37:59.923Z,2
2023-03-11T07:38:59.720Z,2
2023-03-11T07:40:01.472Z,2
2023-03-11T07:41:01.154Z,2
2023-03-11T07:42:01.074Z,2.1
2023-03-11T07:43:01.119Z,2.1
2023-03-11T07:44:01.096Z,2.1
2023-03-11T07:45:01.105Z,2.1
2023-03-11T07:46:01.548Z,2.1
2023-03-11T07:47:01.134Z,2.1
2023-03-11T07:48:01.129Z,2.1
2023-03-11T07:49:01.117Z,2.1
2023-03-11T07:50:00.837Z,2.1
2023-03-11T07:51:01.148Z,2.1
2023-03-11T07:52:01.145Z,2.1
2023-03-11T07:53:01.393Z,2.1
2023-03-11T07:54:02.591Z,2.1
2023-03-11T07:55:02.024Z,2.1
2023-03-11T07:56:01.204Z,2.1
2023-03-11T07:57:01.065Z,2.1
2023-03-11T07:58:01.088Z,2.1
2023-03-11T07:59:01.099Z,2.1
2023-03-11T08:00:01.511Z,2.1
2023-03-11T08:01:01.181Z,2.1
2023-03-11T08:02:01.193Z,2.1
2023-03-11T08:03:01.145Z,2.1
2023-03-11T08:04:01.179Z,2.1
2023-03-11T08:05:04.540Z,2.1
2023-03-11T08:06:01.172Z,2.1
2023-03-11T08:07:01.129Z,2.1
2023-03-11T08:08:01.966Z,2.1
2023-03-11T08:09:01.170Z,2
2023-03-11T08:10:01.626Z,2
2023-03-11T08:11:02.265Z,2
2023-03-11T08:12:02.989Z,2
2023-03-11T08:13:02.025Z,2
2023-03-11T08:14:01.137Z,2
2023-03-11T08:15:04.508Z,2
2023-03-11T08:16:01.157Z,2.1
2023-03-11T08:17:01.099Z,2.1
2023-03-11T08:18:01.261Z,2.1
2023-03-11T08:19:01.512Z,2.1
2023-03-11T08:20:07.631Z,2.1
2023-03-11T08:21:01.132Z,2.1
2023-03-11T08:22:01.922Z,2.1
2023-03-11T08:23:02.503Z,2.1
2023-03-11T08:24:01.155Z,2.1
2023-03-11T08:25:10.026Z,2.1
2023-03-11T08:26:01.169Z,2
2023-03-11T08:27:01.626Z,2
2023-03-11T08:28:02.003Z,2
2023-03-11T08:29:01.627Z,2
2023-03-11T08:30:11.907Z,2
2023-03-11T08:31:01.493Z,2
2023-03-11T08:32:01.142Z,2
2023-03-11T08:33:01.794Z,2
2023-03-11T08:34:01.098Z,2
2023-03-11T08:35:15.697Z,2
2023-03-11T08:36:01.382Z,2
2023-03-11T08:37:01.053Z,2
2023-03-11T08:38:01.120Z,2
2023-03-11T08:39:01.259Z,2.1
2023-03-11T08:40:01.122Z,2.1
2023-03-11T08:41:01.153Z,2.1
2023-03-11T08:42:01.470Z,2.1
2023-03-11T08:43:01.482Z,2.1
2023-03-11T08:44:01.492Z,2.1
2023-03-11T08:45:01.510Z,2.1
2023-03-11T08:46:04.080Z,2.1
2023-03-11T08:47:01.084Z,2.1
2023-03-11T08:48:01.078Z,2.1
2023-03-11T08:49:01.662Z,2.2
2023-03-11T08:50:01.485Z,2.2
2023-03-11T08:51:01.129Z,2.2
2023-03-11T08:52:01.123Z,2.2
2023-03-11T08:53:01.111Z,2.2
2023-03-11T08:54:01.080Z,2.1
2023-03-11T08:55:01.056Z,2.1
2023-03-11T08:56:01.136Z,2.1
2023-03-11T08:57:01.151Z,2.1
2023-03-11T08:58:01.357Z,2.1
2023-03-11T08:59:01.259Z,2.1
2023-03-11T09:00:01.388Z,2.1
2023-03-11T09:01:01.135Z,2.1
2023-03-11T09:02:01.800Z,2.1
2023-03-11T09:03:02.077Z,2.1
2023-03-11T09:04:01.629Z,2.1
2023-03-11T09:05:01.088Z,2.1
2023-03-11T09:06:01.568Z,2.1
2023-03-11T09:07:01.205Z,2.1
2023-03-11T09:08:01.121Z,2.1
2023-03-11T09:09:01.108Z,2.1
2023-03-11T09:10:00.809Z,2.2
2023-03-11T09:11:01.154Z,2.2
2023-03-11T09:12:01.505Z,2.3
2023-03-11T09:13:01.175Z,2.3
2023-03-11T09:14:01.149Z,2.3
2023-03-11T09:15:01.141Z,2.3
2023-03-11T09:16:01.237Z,2.2
2023-03-11T09:17:01.105Z,2.2
2023-03-11T09:18:01.136Z,2.2
2023-03-11T09:19:01.127Z,2.3
2023-03-11T09:20:01.089Z,2.3
2023-03-11T09:21:01.508Z,2.3
2023-03-11T09:22:01.109Z,2.3
2023-03-11T09:23:01.144Z,2.3
2023-03-11T09:24:01.245Z,2.3
2023-03-11T09:25:01.104Z,2.3
2023-03-11T09:26:01.131Z,2.3
2023-03-11T09:27:01.128Z,2.3
2023-03-11T09:28:01.128Z,2.3
2023-03-11T09:29:01.138Z,2.3
2023-03-11T09:30:00.815Z,2.3
2023-03-11T09:31:01.211Z,2.3
2023-03-11T09:32:01.146Z,2.2
2023-03-11T09:33:01.157Z,2.2
2023-03-11T09:34:01.068Z,2.2
2023-03-11T09:35:01.109Z,2.2
2023-03-11T09:36:01.116Z,2.2
2023-03-11T09:37:01.916Z,2.2
2023-03-11T09:38:01.093Z,2.3
2023-03-11T09:39:01.134Z,2.3
2023-03-11T09:40:01.111Z,2.3
2023-03-11T09:41:01.121Z,2.3
2023-03-11T09:42:01.788Z,2.3
2023-03-11T09:43:01.117Z,2.3
2023-03-11T09:44:01.137Z,2.3
2023-03-11T09:45:01.160Z,2.3
2023-03-11T09:46:00.760Z,2.3
2023-03-11T09:47:01.226Z,2.3
2023-03-11T09:48:03.068Z,2.4
2023-03-11T09:49:01.967Z,2.5
2023-03-11T09:50:00.651Z,2.6
2023-03-11T09:51:00.353Z,2.6
2023-03-11T09:51:59.923Z,2.6
2023-03-11T09:52:59.528Z,2.6
2023-03-11T09:54:01.290Z,2.7
2023-03-11T09:55:02.077Z,2.7
2023-03-11T09:56:07.398Z,2.7
2023-03-11T09:57:01.100Z,2.7
2023-03-11T09:58:01.061Z,2.7
2023-03-11T09:59:01.136Z,2.8
2023-03-11T10:00:01.125Z,2.8
2023-03-11T10:01:05.180Z,2.8
2023-03-11T10:02:04.336Z,2.8
2023-03-11T10:03:01.270Z,2.8
2023-03-11T10:04:02.178Z,2.9
2023-03-11T10:05:01.264Z,2.9
2023-03-11T10:06:13.240Z,3
2023-03-11T10:07:01.064Z,3
2023-03-11T10:08:01.085Z,3
2023-03-11T10:09:01.124Z,3
2023-03-11T10:10:01.845Z,3
2023-03-11T10:11:16.044Z,3
2023-03-11T10:12:01.066Z,2.8
2023-03-11T10:13:01.048Z,2.8
2023-03-11T10:14:01.121Z,2.8
2023-03-11T10:15:01.130Z,2.8
2023-03-11T10:16:01.845Z,2.8
2023-03-11T10:17:01.454Z,2.8
2023-03-11T10:18:01.189Z,2.8
2023-03-11T10:19:01.381Z,2.8
2023-03-11T10:20:01.560Z,2.8
2023-03-11T10:21:01.286Z,2.8
2023-03-11T10:22:01.961Z,2.8
2023-03-11T10:23:01.095Z,2.9
2023-03-11T10:24:01.060Z,2.9
2023-03-11T10:25:01.121Z,3
2023-03-11T10:26:01.084Z,2.9
2023-03-11T10:27:01.089Z,3
2023-03-11T10:28:01.796Z,2.9
2023-03-11T10:29:01.238Z,2.9
2023-03-11T10:30:01.416Z,3
2023-03-11T10:31:01.544Z,3
2023-03-11T10:32:01.179Z,3
2023-03-11T10:33:01.337Z,3
2023-03-11T10:34:02.698Z,3
2023-03-11T10:35:02.568Z,3
2023-03-11T10:36:01.517Z,3
2023-03-11T10:37:01.154Z,3.1
2023-03-11T10:38:01.466Z,3.1
2023-03-11T10:39:01.078Z,3.1
2023-03-11T10:40:01.062Z,3.1
2023-03-11T10:41:01.089Z,3.1
2023-03-11T10:42:01.198Z,3
2023-03-11T10:43:01.096Z,3
2023-03-11T10:44:01.093Z,3
2023-03-11T10:45:01.100Z,3
2023-03-11T10:46:01.164Z,2.9
2023-03-11T10:47:01.134Z,3
2023-03-11T10:48:01.322Z,2.9
2023-03-11T10:49:01.132Z,3
2023-03-11T10:50:01.129Z,3
2023-03-11T10:51:01.514Z,3
2023-03-11T10:52:01.071Z,2.9
2023-03-11T10:53:00.833Z,2.9
2023-03-11T10:54:00.474Z,2.9
2023-03-11T10:55:00.162Z,3
2023-03-11T10:55:59.835Z,3
2023-03-11T10:57:02.193Z,3
2023-03-11T10:58:01.279Z,2.9
2023-03-11T10:59:01.917Z,3
2023-03-11T11:00:02.122Z,2.9
2023-03-11T11:01:01.317Z,2.8
2023-03-11T11:02:01.121Z,2.8
2023-03-11T11:03:01.107Z,2.8
2023-03-11T11:04:01.219Z,2.8
2023-03-11T11:05:01.138Z,2.8
2023-03-11T11:06:01.132Z,2.8
2023-03-11T11:07:01.534Z,2.8
2023-03-11T11:08:01.725Z,2.9
2023-03-11T11:09:01.170Z,2.9
2023-03-11T11:10:01.253Z,2.9
2023-03-11T11:11:01.855Z,3
2023-03-11T11:12:01.076Z,2.9
2023-03-11T11:13:00.862Z,2.9
2023-03-11T11:14:00.812Z,2.9
2023-03-11T11:15:00.462Z,3
2023-03-11T11:16:00.169Z,3.1
2023-03-11T11:16:59.876Z,3.1
2023-03-11T11:17:59.550Z,3.1
2023-03-11T11:19:01.127Z,3.1
2023-03-11T11:20:01.115Z,3.2
2023-03-11T11:21:01.087Z,3.2
2023-03-11T11:22:01.172Z,3.1
2023-03-11T11:23:01.203Z,3.1
2023-03-11T11:24:01.154Z,3.1
2023-03-11T11:25:01.413Z,3.1
2023-03-11T11:26:01.381Z,3.1
2023-03-11T11:27:01.071Z,3
2023-03-11T11:28:01.078Z,3
2023-03-11T11:29:01.078Z,3
2023-03-11T11:30:01.212Z,2.9
2023-03-11T11:31:01.144Z,2.9
2023-03-11T11:32:01.100Z,2.9
2023-03-11T11:33:00.782Z,2.9
2023-03-11T11:34:00.500Z,2.9
2023-03-11T11:35:00.129Z,2.9
2023-03-11T11:35:59.775Z,2.9
2023-03-11T11:37:02.656Z,2.8
2023-03-11T11:38:01.200Z,2.8
2023-03-11T11:39:01.184Z,2.8
2023-03-11T11:40:01.136Z,2.8
2023-03-11T11:41:01.147Z,2.8
2023-03-11T11:42:05.834Z,2.8
2023-03-11T11:43:02.068Z,2.8
2023-03-11T11:44:01.620Z,2.8
2023-03-11T11:45:01.067Z,2.8
2023-03-11T11:46:01.135Z,2.8
2023-03-11T11:47:08.507Z,2.8
2023-03-11T11:48:01.282Z,2.9
2023-03-11T11:49:02.146Z,2.9
2023-03-11T11:50:04.617Z,2.9
2023-03-11T11:51:01.898Z,2.9
2023-03-11T11:52:10.588Z,3
2023-03-11T11:53:00.889Z,3
2023-03-11T11:54:01.538Z,3
2023-03-11T11:55:01.133Z,3
2023-03-11T11:56:01.148Z,3
2023-03-11T11:57:13.624Z,3
2023-03-11T11:58:01.042Z,3
2023-03-11T11:59:00.735Z,3
2023-03-11T12:00:00.550Z,3
2023-03-11T12:01:00.700Z,3
2023-03-11T12:02:16.346Z,3
2023-03-11T12:03:01.247Z,3
2023-03-11T12:04:02.362Z,3
2023-03-11T12:05:02.127Z,3.1
2023-03-11T12:06:02.954Z,3.1
2023-03-11T12:07:01.086Z,3
2023-03-11T12:08:01.121Z,3.1
2023-03-11T12:09:01.216Z,3.1
2023-03-11T12:10:12.926Z,3.1
2023-03-11T12:11:01.049Z,3.1
2023-03-11T12:12:01.565Z,3.1
2023-03-11T12:13:01.220Z,3.2
2023-03-11T12:14:01.985Z,3.2
2023-03-11T12:15:02.516Z,3.2
2023-03-11T12:16:01.164Z,3.2
2023-03-11T12:17:03.881Z,3.1
2023-03-11T12:18:01.069Z,3.1
2023-03-11T12:19:01.107Z,3.1
2023-03-11T12:20:01.089Z,3.1
2023-03-11T12:21:01.094Z,3.1
2023-03-11T12:22:01.120Z,3.1
2023-03-11T12:23:01.343Z,3.1
2023-03-11T12:24:01.110Z,3.1
2023-03-11T12:25:01.852Z,3.1
2023-03-11T12:26:01.923Z,3.1
2023-03-11T12:27:01.832Z,3.1
2023-03-11T12:28:01.530Z,3.1
2023-03-11T12:29:01.155Z,3.1
2023-03-11T12:30:01.189Z,3.1
2023-03-11T12:31:02.096Z,3.1
2023-03-11T12:32:01.081Z,3
2023-03-11T12:33:00.751Z,3
2023-03-11T12:34:01.072Z,2.9
2023-03-11T12:35:01.089Z,2.8
2023-03-11T12:36:01.557Z,2.8
2023-03-11T12:37:01.477Z,2.8
2023-03-11T12:38:01.080Z,2.8
2023-03-11T12:39:03.856Z,2.8
2023-03-11T12:40:01.212Z,2.8
2023-03-11T12:41:02.442Z,2.9
2023-03-11T12:42:01.942Z,2.8
2023-03-11T12:43:01.080Z,2.8
2023-03-11T12:44:01.156Z,2.9
2023-03-11T12:45:01.136Z,2.9
2023-03-11T12:46:01.253Z,2.9
2023-03-11T12:47:01.971Z,2.9
2023-03-11T12:48:02.508Z,2.9
2023-03-11T12:49:01.174Z,2.9
2023-03-11T12:50:01.065Z,2.8
2023-03-11T12:51:01.067Z,2.8
2023-03-11T12:52:01.102Z,2.8
2023-03-11T12:53:00.776Z,2.8
2023-03-11T12:54:00.471Z,2.8
2023-03-11T12:55:00.058Z,2.8
2023-03-11T12:55:59.682Z,2.8
2023-03-11T12:57:01.879Z,2.8
2023-03-11T12:58:01.212Z,2.8
2023-03-11T12:59:01.453Z,2.8
2023-03-11T13:00:01.145Z,2.9
2023-03-11T13:01:01.911Z,2.9
2023-03-11T13:02:01.607Z,2.9
2023-03-11T13:03:02.208Z,3
2023-03-11T13:04:01.379Z,3
2023-03-11T13:05:02.536Z,3
2023-03-11T13:06:01.083Z,3
2023-03-11T13:07:01.339Z,3
2023-03-11T13:08:01.110Z,3
2023-03-11T13:09:01.098Z,3.1
2023-03-11T13:10:01.104Z,3.1
2023-03-11T13:11:01.131Z,3.1
2023-03-11T13:12:01.163Z,3.2
2023-03-11T13:13:00.799Z,3.3
2023-03-11T13:14:01.520Z,3.3
2023-03-11T13:15:02.717Z,3.3
2023-03-11T13:16:02.362Z,3.2
2023-03-11T13:17:02.579Z,3.2
2023-03-11T13:18:01.332Z,3.2
2023-03-11T13:19:02.567Z,3.1
2023-03-11T13:20:02.207Z,3.1
2023-03-11T13:21:01.687Z,3.2
2023-03-11T13:22:01.190Z,3.3
2023-03-11T13:23:01.146Z,3.3
2023-03-11T13:24:01.109Z,3.3
2023-03-11T13:25:01.167Z,3.3
2023-03-11T13:26:01.204Z,3.4
2023-03-11T13:27:04.502Z,3.3
2023-03-11T13:28:04.698Z,3.3
2023-03-11T13:29:02.519Z,3.3
2023-03-11T13:30:01.134Z,3.4
2023-03-11T13:31:01.002Z,3.3
2023-03-11T13:32:01.383Z,3.4
2023-03-11T13:33:06.046Z,3.4
2023-03-11T13:34:01.540Z,3.4
2023-03-11T13:35:01.649Z,3.4
2023-03-11T13:36:01.605Z,3.3
2023-03-11T13:37:01.096Z,3.3
2023-03-11T13:38:08.958Z,3.3
2023-03-11T13:39:01.181Z,3.3
2023-03-11T13:40:01.107Z,3.3
2023-03-11T13:41:01.186Z,3.2
2023-03-11T13:42:01.113Z,3.3
2023-03-11T13:43:11.018Z,3.2
2023-03-11T13:44:01.498Z,3.2
2023-03-11T13:45:01.117Z,3.1
2023-03-11T13:46:01.164Z,3
2023-03-11T13:47:01.133Z,3
2023-03-11T13:48:14.691Z,3
2023-03-11T13:49:00.838Z,3
2023-03-11T13:50:00.404Z,3
2023-03-11T13:51:00.186Z,3
2023-03-11T13:51:59.843Z,3
2023-03-11T13:53:15.913Z,3
2023-03-11T13:54:02.076Z,3.1
2023-03-11T13:55:01.076Z,3.1
2023-03-11T13:56:00.779Z,3.1